Airfield :
LOGIN :

Register | Disclaimer

   EN    FR    IT 

 










Legend :    VFR   Marginal VFR   IFR   Intensive IFR   Very Intensive IFR
Visi :
Ceiling :
>= 8 km
>= 3000ft
5 to 8 km
1000 to 3000 ft
1500m to 5 km
500 to 1000 ft
800 to 1500m
200 to 500 ft
< 800m
< 200 ft
Symbols :   Thunderstorms  Fog  Heavy snow  Heavy precipitations  Wind > 20 kt
SIGMETs :     Misc.  Thunderstorms  Icing  Turbulence  Mountain Waves  Volcanic Ashes






- Airport Elevation : 1202 ft
- IATA code : IGS


ETSI - Ingolstadt

CURRENT METAR :
  • 091020Z 27012KT 9999 FEW024 09/03 Q1005 BLU+BLU+

EXPIRED METARs :
  • 090920Z 25007G18KT 9999 FEW020 07/02 Q1005 BLU+BLU+
  • 090820Z 21003KT 9999 FEW050 04/01 Q1005 BLU+BLU+

TAF TAF ETSI
Valid from the 09 at 09:00 until the 09 at 18:00 UTC


090801Z 0909/0918 22010KT 9999 NSW FEW020 SCT025 BKN220
PROB30 0909/0913 22012G22KT 6000 SHRA FEW012 BKN020TCU BKN150
TEMPO 0913/0918 22015G25KT 4000 +SHRA FEW010 BKN015CB BKN180



MET'MAP, your aeronautical weather chart ! - Copyright ORBIFLY December 2007 - Disclaimer

ORBIFLY MET'MAP TEAM :

Programming & Development : Alexandra Zaïnal
Concept & original design : Baudouin d'Aumeries
Assistance for programming : Marc-Olivier Méhu
Technical & hardware support : Manuel Goepfert

Contact : metmap@orbifly.com




SOURCES & CREDITS :

   NOAA